sensor_id;sensor_type;location;lat;lon;timestamp;P1;durP1;ratioP1;P2;durP2;ratioP2
17235;SDS011;8734;59.272;17.780;2023-05-17T00:00:59;10.80;;;7.70;;
17235;SDS011;8734;59.272;17.780;2023-05-17T00:03:28;11.10;;;7.50;;
17235;SDS011;8734;59.272;17.780;2023-05-17T00:05:56;13.00;;;8.57;;
17235;SDS011;8734;59.272;17.780;2023-05-17T00:08:24;15.73;;;8.13;;
17235;SDS011;8734;59.272;17.780;2023-05-17T00:10:54;10.97;;;7.83;;
17235;SDS011;8734;59.272;17.780;2023-05-17T00:13:22;10.63;;;7.87;;
17235;SDS011;8734;59.272;17.780;2023-05-17T00:15:50;18.63;;;8.67;;
17235;SDS011;8734;59.272;17.780;2023-05-17T00:18:19;11.83;;;8.00;;
17235;SDS011;8734;59.272;17.780;2023-05-17T00:20:47;14.73;;;8.33;;
17235;SDS011;8734;59.272;17.780;2023-05-17T00:23:15;16.83;;;8.10;;
17235;SDS011;8734;59.272;17.780;2023-05-17T00:25:44;9.97;;;7.93;;
17235;SDS011;8734;59.272;17.780;2023-05-17T00:28:13;12.57;;;7.97;;
17235;SDS011;8734;59.272;17.780;2023-05-17T00:30:42;10.37;;;8.17;;
17235;SDS011;8734;59.272;17.780;2023-05-17T00:33:10;12.37;;;8.00;;
17235;SDS011;8734;59.272;17.780;2023-05-17T00:35:38;12.20;;;8.23;;
17235;SDS011;8734;59.272;17.780;2023-05-17T00:38:06;11.67;;;7.83;;
17235;SDS011;8734;59.272;17.780;2023-05-17T00:40:35;13.50;;;8.37;;
17235;SDS011;8734;59.272;17.780;2023-05-17T00:43:03;11.30;;;8.37;;
17235;SDS011;8734;59.272;17.780;2023-05-17T00:45:33;12.63;;;8.10;;
17235;SDS011;8734;59.272;17.780;2023-05-17T00:48:01;13.23;;;8.53;;
17235;SDS011;8734;59.272;17.780;2023-05-17T00:50:30;14.30;;;9.27;;
17235;SDS011;8734;59.272;17.780;2023-05-17T00:52:58;12.40;;;8.80;;
17235;SDS011;8734;59.272;17.780;2023-05-17T00:55:27;12.50;;;8.57;;
17235;SDS011;8734;59.272;17.780;2023-05-17T00:57:56;12.10;;;8.30;;
17235;SDS011;8734;59.272;17.780;2023-05-17T01:00:24;12.13;;;8.13;;
17235;SDS011;8734;59.272;17.780;2023-05-17T01:02:54;10.63;;;8.13;;
17235;SDS011;8734;59.272;17.780;2023-05-17T01:05:22;11.10;;;8.30;;
17235;SDS011;8734;59.272;17.780;2023-05-17T01:07:54;11.70;;;8.60;;
17235;SDS011;8734;59.272;17.780;2023-05-17T01:10:22;10.70;;;8.17;;
17235;SDS011;8734;59.272;17.780;2023-05-17T01:13:07;13.60;;;8.23;;
17235;SDS011;8734;59.272;17.780;2023-05-17T01:15:42;13.80;;;7.97;;
17235;SDS011;8734;59.272;17.780;2023-05-17T01:18:18;12.63;;;8.47;;
17235;SDS011;8734;59.272;17.780;2023-05-17T01:20:52;11.70;;;8.30;;
17235;SDS011;8734;59.272;17.780;2023-05-17T01:23:30;8.90;;;7.63;;
17235;SDS011;8734;59.272;17.780;2023-05-17T01:26:09;15.00;;;8.60;;
17235;SDS011;8734;59.272;17.780;2023-05-17T01:28:45;12.00;;;7.90;;
17235;SDS011;8734;59.272;17.780;2023-05-17T01:31:16;10.23;;;7.37;;
17235;SDS011;8734;59.272;17.780;2023-05-17T01:33:45;11.10;;;8.03;;
17235;SDS011;8734;59.272;17.780;2023-05-17T01:36:14;12.43;;;7.77;;
17235;SDS011;8734;59.272;17.780;2023-05-17T01:38:42;12.20;;;8.30;;
17235;SDS011;8734;59.272;17.780;2023-05-17T01:41:12;12.33;;;8.47;;
17235;SDS011;8734;59.272;17.780;2023-05-17T01:43:45;18.80;;;8.20;;
17235;SDS011;8734;59.272;17.780;2023-05-17T01:46:18;11.37;;;8.10;;
17235;SDS011;8734;59.272;17.780;2023-05-17T01:48:55;13.80;;;8.10;;
17235;SDS011;8734;59.272;17.780;2023-05-17T01:51:33;10.37;;;6.97;;
17235;SDS011;8734;59.272;17.780;2023-05-17T01:54:06;15.53;;;8.00;;
17235;SDS011;8734;59.272;17.780;2023-05-17T01:56:40;11.13;;;7.40;;
17235;SDS011;8734;59.272;17.780;2023-05-17T01:59:13;12.33;;;7.77;;
17235;SDS011;8734;59.272;17.780;2023-05-17T02:01:47;13.20;;;8.57;;
17235;SDS011;8734;59.272;17.780;2023-05-17T02:04:17;10.20;;;7.43;;
17235;SDS011;8734;59.272;17.780;2023-05-17T02:06:45;14.03;;;7.40;;
17235;SDS011;8734;59.272;17.780;2023-05-17T02:09:14;11.60;;;7.97;;
17235;SDS011;8734;59.272;17.780;2023-05-17T02:11:42;10.63;;;7.40;;
17235;SDS011;8734;59.272;17.780;2023-05-17T02:14:10;12.90;;;7.43;;
17235;SDS011;8734;59.272;17.780;2023-05-17T02:16:40;13.83;;;7.53;;
17235;SDS011;8734;59.272;17.780;2023-05-17T02:19:08;14.47;;;7.87;;
17235;SDS011;8734;59.272;17.780;2023-05-17T02:21:38;11.77;;;8.00;;
17235;SDS011;8734;59.272;17.780;2023-05-17T02:24:06;9.97;;;8.30;;
17235;SDS011;8734;59.272;17.780;2023-05-17T02:26:35;11.73;;;8.10;;
17235;SDS011;8734;59.272;17.780;2023-05-17T02:29:03;11.53;;;8.07;;
17235;SDS011;8734;59.272;17.780;2023-05-17T02:31:33;16.70;;;8.63;;
17235;SDS011;8734;59.272;17.780;2023-05-17T02:34:01;10.60;;;7.83;;
17235;SDS011;8734;59.272;17.780;2023-05-17T02:36:29;15.70;;;8.50;;
17235;SDS011;8734;59.272;17.780;2023-05-17T02:38:58;11.60;;;7.90;;
17235;SDS011;8734;59.272;17.780;2023-05-17T02:41:26;12.70;;;8.27;;
17235;SDS011;8734;59.272;17.780;2023-05-17T02:43:54;13.67;;;7.70;;
17235;SDS011;8734;59.272;17.780;2023-05-17T02:46:23;10.97;;;7.17;;
17235;SDS011;8734;59.272;17.780;2023-05-17T02:48:53;13.83;;;7.70;;
17235;SDS011;8734;59.272;17.780;2023-05-17T02:51:21;13.53;;;8.30;;
17235;SDS011;8734;59.272;17.780;2023-05-17T02:53:49;11.30;;;7.67;;
17235;SDS011;8734;59.272;17.780;2023-05-17T02:56:17;12.63;;;7.70;;
17235;SDS011;8734;59.272;17.780;2023-05-17T02:58:46;12.87;;;7.73;;
17235;SDS011;8734;59.272;17.780;2023-05-17T03:01:14;14.73;;;7.73;;
17235;SDS011;8734;59.272;17.780;2023-05-17T03:03:42;9.00;;;7.17;;
17235;SDS011;8734;59.272;17.780;2023-05-17T03:06:12;12.03;;;7.23;;
17235;SDS011;8734;59.272;17.780;2023-05-17T03:08:40;13.30;;;6.90;;
17235;SDS011;8734;59.272;17.780;2023-05-17T03:11:08;11.50;;;7.40;;
17235;SDS011;8734;59.272;17.780;2023-05-17T03:13:37;8.60;;;6.53;;
17235;SDS011;8734;59.272;17.780;2023-05-17T03:16:05;12.37;;;6.60;;
17235;SDS011;8734;59.272;17.780;2023-05-17T03:18:34;9.27;;;6.10;;
17235;SDS011;8734;59.272;17.780;2023-05-17T03:21:03;8.70;;;6.17;;
17235;SDS011;8734;59.272;17.780;2023-05-17T03:23:32;8.77;;;6.70;;
17235;SDS011;8734;59.272;17.780;2023-05-17T03:26:01;9.90;;;7.00;;
17235;SDS011;8734;59.272;17.780;2023-05-17T03:28:29;7.80;;;6.27;;
17235;SDS011;8734;59.272;17.780;2023-05-17T03:30:57;9.63;;;6.33;;
17235;SDS011;8734;59.272;17.780;2023-05-17T03:33:26;9.47;;;7.07;;
17235;SDS011;8734;59.272;17.780;2023-05-17T03:35:54;9.67;;;6.83;;
17235;SDS011;8734;59.272;17.780;2023-05-17T03:38:22;10.00;;;6.83;;
17235;SDS011;8734;59.272;17.780;2023-05-17T03:40:52;9.57;;;6.20;;
17235;SDS011;8734;59.272;17.780;2023-05-17T03:43:21;8.50;;;6.40;;
17235;SDS011;8734;59.272;17.780;2023-05-17T03:45:49;8.20;;;6.33;;
17235;SDS011;8734;59.272;17.780;2023-05-17T03:48:17;7.87;;;6.23;;
17235;SDS011;8734;59.272;17.780;2023-05-17T03:50:45;8.53;;;6.23;;
17235;SDS011;8734;59.272;17.780;2023-05-17T03:53:14;8.63;;;6.73;;
17235;SDS011;8734;59.272;17.780;2023-05-17T03:55:42;10.83;;;6.40;;
17235;SDS011;8734;59.272;17.780;2023-05-17T03:58:11;9.17;;;6.07;;
17235;SDS011;8734;59.272;17.780;2023-05-17T04:00:41;7.47;;;6.43;;
17235;SDS011;8734;59.272;17.780;2023-05-17T04:03:09;9.93;;;6.70;;
17235;SDS011;8734;59.272;17.780;2023-05-17T04:05:38;8.20;;;6.00;;
17235;SDS011;8734;59.272;17.780;2023-05-17T04:08:07;13.00;;;6.63;;
17235;SDS011;8734;59.272;17.780;2023-05-17T04:10:35;10.87;;;6.50;;
17235;SDS011;8734;59.272;17.780;2023-05-17T04:13:07;10.93;;;6.77;;
17235;SDS011;8734;59.272;17.780;2023-05-17T04:15:37;14.13;;;6.73;;
17235;SDS011;8734;59.272;17.780;2023-05-17T04:18:05;11.97;;;6.90;;
17235;SDS011;8734;59.272;17.780;2023-05-17T04:20:33;11.83;;;7.27;;
17235;SDS011;8734;59.272;17.780;2023-05-17T04:23:01;12.23;;;7.77;;
17235;SDS011;8734;59.272;17.780;2023-05-17T04:25:30;10.07;;;7.50;;
17235;SDS011;8734;59.272;17.780;2023-05-17T04:27:58;11.47;;;7.10;;
17235;SDS011;8734;59.272;17.780;2023-05-17T04:30:26;12.27;;;7.90;;
17235;SDS011;8734;59.272;17.780;2023-05-17T04:32:56;15.20;;;7.50;;
17235;SDS011;8734;59.272;17.780;2023-05-17T04:35:24;12.67;;;8.20;;
17235;SDS011;8734;59.272;17.780;2023-05-17T04:37:53;12.60;;;7.37;;
17235;SDS011;8734;59.272;17.780;2023-05-17T04:40:21;10.30;;;7.43;;
17235;SDS011;8734;59.272;17.780;2023-05-17T04:42:51;11.97;;;7.20;;
17235;SDS011;8734;59.272;17.780;2023-05-17T04:45:19;10.40;;;7.43;;
17235;SDS011;8734;59.272;17.780;2023-05-17T04:47:48;11.23;;;7.73;;
17235;SDS011;8734;59.272;17.780;2023-05-17T04:50:19;10.07;;;7.40;;
17235;SDS011;8734;59.272;17.780;2023-05-17T04:52:48;9.80;;;7.00;;
17235;SDS011;8734;59.272;17.780;2023-05-17T04:55:16;9.37;;;7.07;;
17235;SDS011;8734;59.272;17.780;2023-05-17T04:57:44;10.23;;;7.37;;
17235;SDS011;8734;59.272;17.780;2023-05-17T05:00:13;8.17;;;6.50;;
17235;SDS011;8734;59.272;17.780;2023-05-17T05:02:42;13.30;;;7.93;;
17235;SDS011;8734;59.272;17.780;2023-05-17T05:05:11;11.70;;;7.93;;
17235;SDS011;8734;59.272;17.780;2023-05-17T05:07:41;11.63;;;8.30;;
17235;SDS011;8734;59.272;17.780;2023-05-17T05:10:09;12.43;;;8.27;;
17235;SDS011;8734;59.272;17.780;2023-05-17T05:12:40;11.43;;;7.93;;
17235;SDS011;8734;59.272;17.780;2023-05-17T05:15:08;14.43;;;8.13;;
17235;SDS011;8734;59.272;17.780;2023-05-17T05:17:37;13.03;;;8.87;;
17235;SDS011;8734;59.272;17.780;2023-05-17T05:20:06;15.17;;;8.53;;
17235;SDS011;8734;59.272;17.780;2023-05-17T05:22:35;14.60;;;9.00;;
17235;SDS011;8734;59.272;17.780;2023-05-17T05:25:06;11.87;;;8.27;;
17235;SDS011;8734;59.272;17.780;2023-05-17T05:27:34;16.20;;;9.30;;
17235;SDS011;8734;59.272;17.780;2023-05-17T05:30:03;14.67;;;8.70;;
17235;SDS011;8734;59.272;17.780;2023-05-17T05:32:32;14.43;;;8.50;;
17235;SDS011;8734;59.272;17.780;2023-05-17T05:35:00;11.77;;;7.53;;
17235;SDS011;8734;59.272;17.780;2023-05-17T05:37:29;10.70;;;7.03;;
17235;SDS011;8734;59.272;17.780;2023-05-17T05:39:57;10.50;;;5.53;;
17235;SDS011;8734;59.272;17.780;2023-05-17T05:42:27;5.47;;;4.00;;
17235;SDS011;8734;59.272;17.780;2023-05-17T05:44:55;6.57;;;3.90;;
17235;SDS011;8734;59.272;17.780;2023-05-17T05:47:24;4.13;;;3.37;;
17235;SDS011;8734;59.272;17.780;2023-05-17T05:49:52;5.03;;;3.67;;
17235;SDS011;8734;59.272;17.780;2023-05-17T05:52:20;4.57;;;3.60;;
17235;SDS011;8734;59.272;17.780;2023-05-17T05:54:48;8.33;;;3.43;;
17235;SDS011;8734;59.272;17.780;2023-05-17T05:57:17;5.80;;;3.47;;
17235;SDS011;8734;59.272;17.780;2023-05-17T05:59:47;10.43;;;3.83;;
17235;SDS011;8734;59.272;17.780;2023-05-17T06:02:15;10.93;;;3.73;;
17235;SDS011;8734;59.272;17.780;2023-05-17T06:04:45;8.07;;;3.30;;
17235;SDS011;8734;59.272;17.780;2023-05-17T06:07:14;7.80;;;3.67;;
17235;SDS011;8734;59.272;17.780;2023-05-17T06:09:42;5.47;;;3.37;;
17235;SDS011;8734;59.272;17.780;2023-05-17T06:12:10;8.87;;;3.00;;
17235;SDS011;8734;59.272;17.780;2023-05-17T06:14:39;3.93;;;3.30;;
17235;SDS011;8734;59.272;17.780;2023-05-17T06:17:08;5.83;;;3.30;;
17235;SDS011;8734;59.272;17.780;2023-05-17T06:19:37;6.00;;;3.07;;
17235;SDS011;8734;59.272;17.780;2023-05-17T06:22:06;5.07;;;3.20;;
17235;SDS011;8734;59.272;17.780;2023-05-17T06:24:34;3.60;;;3.00;;
17235;SDS011;8734;59.272;17.780;2023-05-17T06:27:02;4.87;;;3.10;;
17235;SDS011;8734;59.272;17.780;2023-05-17T06:29:32;3.37;;;2.83;;
17235;SDS011;8734;59.272;17.780;2023-05-17T06:32:00;8.33;;;3.40;;
17235;SDS011;8734;59.272;17.780;2023-05-17T06:34:30;4.47;;;2.50;;
17235;SDS011;8734;59.272;17.780;2023-05-17T06:37:00;6.80;;;3.20;;
17235;SDS011;8734;59.272;17.780;2023-05-17T06:39:29;6.73;;;3.50;;
17235;SDS011;8734;59.272;17.780;2023-05-17T06:41:57;7.07;;;2.90;;
17235;SDS011;8734;59.272;17.780;2023-05-17T06:44:25;5.83;;;3.00;;
17235;SDS011;8734;59.272;17.780;2023-05-17T06:46:53;7.63;;;3.60;;
17235;SDS011;8734;59.272;17.780;2023-05-17T06:49:22;5.40;;;2.93;;
17235;SDS011;8734;59.272;17.780;2023-05-17T06:51:52;5.47;;;2.83;;
17235;SDS011;8734;59.272;17.780;2023-05-17T06:54:21;6.00;;;2.70;;
17235;SDS011;8734;59.272;17.780;2023-05-17T06:56:49;8.23;;;2.33;;
17235;SDS011;8734;59.272;17.780;2023-05-17T06:59:17;1.90;;;1.40;;
17235;SDS011;8734;59.272;17.780;2023-05-17T07:01:45;1.90;;;0.80;;
17235;SDS011;8734;59.272;17.780;2023-05-17T07:04:14;0.87;;;0.60;;
17235;SDS011;8734;59.272;17.780;2023-05-17T07:06:42;0.60;;;0.43;;
17235;SDS011;8734;59.272;17.780;2023-05-17T07:09:12;0.50;;;0.50;;
17235;SDS011;8734;59.272;17.780;2023-05-17T07:11:40;2.93;;;0.50;;
17235;SDS011;8734;59.272;17.780;2023-05-17T07:14:09;0.30;;;0.30;;
17235;SDS011;8734;59.272;17.780;2023-05-17T07:16:37;5.83;;;0.70;;
17235;SDS011;8734;59.272;17.780;2023-05-17T07:19:05;0.70;;;0.50;;
17235;SDS011;8734;59.272;17.780;2023-05-17T07:21:34;2.00;;;0.77;;
17235;SDS011;8734;59.272;17.780;2023-05-17T07:24:02;0.60;;;0.60;;
17235;SDS011;8734;59.272;17.780;2023-05-17T07:26:32;2.37;;;0.40;;
17235;SDS011;8734;59.272;17.780;2023-05-17T07:29:01;0.63;;;0.63;;
17235;SDS011;8734;59.272;17.780;2023-05-17T07:31:30;0.90;;;0.60;;
17235;SDS011;8734;59.272;17.780;2023-05-17T07:33:58;2.37;;;0.60;;
17235;SDS011;8734;59.272;17.780;2023-05-17T07:36:27;1.70;;;0.50;;
17235;SDS011;8734;59.272;17.780;2023-05-17T07:38:56;0.57;;;0.57;;
17235;SDS011;8734;59.272;17.780;2023-05-17T07:41:24;0.60;;;0.60;;
17235;SDS011;8734;59.272;17.780;2023-05-17T07:43:54;1.40;;;1.03;;
17235;SDS011;8734;59.272;17.780;2023-05-17T07:46:22;1.03;;;0.80;;
17235;SDS011;8734;59.272;17.780;2023-05-17T07:48:52;8.70;;;0.70;;
17235;SDS011;8734;59.272;17.780;2023-05-17T07:51:24;4.73;;;0.70;;
17235;SDS011;8734;59.272;17.780;2023-05-17T07:53:52;0.80;;;0.80;;
17235;SDS011;8734;59.272;17.780;2023-05-17T07:56:20;0.70;;;0.70;;
17235;SDS011;8734;59.272;17.780;2023-05-17T07:58:49;0.67;;;0.67;;
17235;SDS011;8734;59.272;17.780;2023-05-17T08:01:18;4.53;;;0.70;;
17235;SDS011;8734;59.272;17.780;2023-05-17T08:03:48;0.70;;;0.70;;
17235;SDS011;8734;59.272;17.780;2023-05-17T08:06:16;1.00;;;0.80;;
17235;SDS011;8734;59.272;17.780;2023-05-17T08:08:45;1.27;;;0.70;;
17235;SDS011;8734;59.272;17.780;2023-05-17T08:11:13;0.70;;;0.70;;
17235;SDS011;8734;59.272;17.780;2023-05-17T08:13:42;0.63;;;0.63;;
17235;SDS011;8734;59.272;17.780;2023-05-17T08:16:10;0.70;;;0.70;;
17235;SDS011;8734;59.272;17.780;2023-05-17T08:18:41;0.60;;;0.60;;
17235;SDS011;8734;59.272;17.780;2023-05-17T08:21:10;0.80;;;0.80;;
17235;SDS011;8734;59.272;17.780;2023-05-17T08:23:39;2.00;;;0.73;;
17235;SDS011;8734;59.272;17.780;2023-05-17T08:26:07;1.00;;;0.87;;
17235;SDS011;8734;59.272;17.780;2023-05-17T08:28:37;4.10;;;0.90;;
17235;SDS011;8734;59.272;17.780;2023-05-17T08:31:06;6.47;;;0.80;;
17235;SDS011;8734;59.272;17.780;2023-05-17T08:33:34;0.70;;;0.70;;
17235;SDS011;8734;59.272;17.780;2023-05-17T08:36:04;0.70;;;0.60;;
17235;SDS011;8734;59.272;17.780;2023-05-17T08:38:34;0.50;;;0.50;;
17235;SDS011;8734;59.272;17.780;2023-05-17T08:41:02;3.43;;;0.63;;
17235;SDS011;8734;59.272;17.780;2023-05-17T08:43:31;6.40;;;0.80;;
17235;SDS011;8734;59.272;17.780;2023-05-17T08:45:59;1.13;;;0.40;;
17235;SDS011;8734;59.272;17.780;2023-05-17T08:48:29;2.70;;;0.40;;
17235;SDS011;8734;59.272;17.780;2023-05-17T08:50:58;0.50;;;0.30;;
17235;SDS011;8734;59.272;17.780;2023-05-17T08:53:28;0.30;;;0.30;;
17235;SDS011;8734;59.272;17.780;2023-05-17T08:55:57;0.40;;;0.40;;
17235;SDS011;8734;59.272;17.780;2023-05-17T08:58:30;1.43;;;0.60;;
17235;SDS011;8734;59.272;17.780;2023-05-17T09:01:21;0.50;;;0.50;;
17235;SDS011;8734;59.272;17.780;2023-05-17T09:03:53;0.30;;;0.30;;
17235;SDS011;8734;59.272;17.780;2023-05-17T09:06:21;5.40;;;0.40;;
17235;SDS011;8734;59.272;17.780;2023-05-17T09:08:52;0.40;;;0.40;;
17235;SDS011;8734;59.272;17.780;2023-05-17T09:11:24;2.63;;;0.30;;
17235;SDS011;8734;59.272;17.780;2023-05-17T09:13:56;0.30;;;0.30;;
17235;SDS011;8734;59.272;17.780;2023-05-17T09:16:26;0.30;;;0.30;;
17235;SDS011;8734;59.272;17.780;2023-05-17T09:18:56;1.80;;;0.30;;
17235;SDS011;8734;59.272;17.780;2023-05-17T09:21:26;0.77;;;0.30;;
17235;SDS011;8734;59.272;17.780;2023-05-17T09:23:58;0.20;;;0.20;;
17235;SDS011;8734;59.272;17.780;2023-05-17T09:26:36;0.93;;;0.30;;
17235;SDS011;8734;59.272;17.780;2023-05-17T09:29:09;1.07;;;0.37;;
17235;SDS011;8734;59.272;17.780;2023-05-17T09:31:38;0.40;;;0.20;;
17235;SDS011;8734;59.272;17.780;2023-05-17T09:34:07;0.67;;;0.30;;
17235;SDS011;8734;59.272;17.780;2023-05-17T09:36:36;0.70;;;0.30;;
17235;SDS011;8734;59.272;17.780;2023-05-17T09:39:08;0.20;;;0.20;;
17235;SDS011;8734;59.272;17.780;2023-05-17T09:41:40;0.30;;;0.30;;
17235;SDS011;8734;59.272;17.780;2023-05-17T09:44:11;0.30;;;0.30;;
17235;SDS011;8734;59.272;17.780;2023-05-17T09:46:41;0.23;;;0.23;;
17235;SDS011;8734;59.272;17.780;2023-05-17T09:49:11;0.63;;;0.30;;
17235;SDS011;8734;59.272;17.780;2023-05-17T09:51:40;0.33;;;0.33;;
17235;SDS011;8734;59.272;17.780;2023-05-17T09:54:11;0.30;;;0.30;;
17235;SDS011;8734;59.272;17.780;2023-05-17T09:56:40;1.03;;;0.30;;
17235;SDS011;8734;59.272;17.780;2023-05-17T09:59:12;3.60;;;0.30;;
17235;SDS011;8734;59.272;17.780;2023-05-17T10:01:43;9.10;;;0.40;;
17235;SDS011;8734;59.272;17.780;2023-05-17T10:04:12;0.87;;;0.50;;
17235;SDS011;8734;59.272;17.780;2023-05-17T10:06:46;2.63;;;0.50;;
17235;SDS011;8734;59.272;17.780;2023-05-17T10:09:20;6.03;;;0.60;;
17235;SDS011;8734;59.272;17.780;2023-05-17T10:11:49;2.97;;;0.30;;
17235;SDS011;8734;59.272;17.780;2023-05-17T10:14:22;1.90;;;0.50;;
17235;SDS011;8734;59.272;17.780;2023-05-17T10:16:53;4.00;;;0.43;;
17235;SDS011;8734;59.272;17.780;2023-05-17T10:19:22;0.30;;;0.30;;
17235;SDS011;8734;59.272;17.780;2023-05-17T10:21:52;0.50;;;0.50;;
17235;SDS011;8734;59.272;17.780;2023-05-17T10:24:34;0.30;;;0.30;;
17235;SDS011;8734;59.272;17.780;2023-05-17T10:27:04;0.30;;;0.30;;
17235;SDS011;8734;59.272;17.780;2023-05-17T10:29:33;0.40;;;0.40;;
17235;SDS011;8734;59.272;17.780;2023-05-17T10:32:05;0.30;;;0.30;;
17235;SDS011;8734;59.272;17.780;2023-05-17T10:34:34;0.47;;;0.47;;
17235;SDS011;8734;59.272;17.780;2023-05-17T10:37:03;0.20;;;0.20;;
17235;SDS011;8734;59.272;17.780;2023-05-17T10:39:32;0.53;;;0.30;;
17235;SDS011;8734;59.272;17.780;2023-05-17T10:42:06;0.47;;;0.37;;
17235;SDS011;8734;59.272;17.780;2023-05-17T10:44:38;0.83;;;0.50;;
17235;SDS011;8734;59.272;17.780;2023-05-17T10:47:06;0.40;;;0.40;;
17235;SDS011;8734;59.272;17.780;2023-05-17T10:49:36;0.57;;;0.57;;
17235;SDS011;8734;59.272;17.780;2023-05-17T10:52:13;1.07;;;0.40;;
17235;SDS011;8734;59.272;17.780;2023-05-17T10:54:44;0.30;;;0.30;;
17235;SDS011;8734;59.272;17.780;2023-05-17T10:57:20;1.27;;;0.50;;
17235;SDS011;8734;59.272;17.780;2023-05-17T11:00:18;1.17;;;0.40;;
17235;SDS011;8734;59.272;17.780;2023-05-17T11:02:47;0.20;;;0.20;;
17235;SDS011;8734;59.272;17.780;2023-05-17T11:05:22;0.97;;;0.33;;
17235;SDS011;8734;59.272;17.780;2023-05-17T11:07:59;0.40;;;0.40;;
17235;SDS011;8734;59.272;17.780;2023-05-17T11:10:53;1.17;;;0.40;;
17235;SDS011;8734;59.272;17.780;2023-05-17T11:13:43;0.27;;;0.27;;
17235;SDS011;8734;59.272;17.780;2023-05-17T11:16:13;0.43;;;0.43;;
17235;SDS011;8734;59.272;17.780;2023-05-17T11:18:47;0.40;;;0.40;;
17235;SDS011;8734;59.272;17.780;2023-05-17T11:21:16;0.47;;;0.40;;
17235;SDS011;8734;59.272;17.780;2023-05-17T11:23:45;0.30;;;0.30;;
17235;SDS011;8734;59.272;17.780;2023-05-17T11:26:15;0.73;;;0.40;;
17235;SDS011;8734;59.272;17.780;2023-05-17T11:28:55;1.77;;;0.50;;
17235;SDS011;8734;59.272;17.780;2023-05-17T11:31:30;5.87;;;0.40;;
17235;SDS011;8734;59.272;17.780;2023-05-17T11:34:01;2.20;;;0.30;;
17235;SDS011;8734;59.272;17.780;2023-05-17T11:36:30;1.20;;;0.40;;
17235;SDS011;8734;59.272;17.780;2023-05-17T11:39:17;1.37;;;0.60;;
17235;SDS011;8734;59.272;17.780;2023-05-17T11:41:47;0.50;;;0.50;;
17235;SDS011;8734;59.272;17.780;2023-05-17T11:44:21;0.33;;;0.33;;
17235;SDS011;8734;59.272;17.780;2023-05-17T11:46:58;3.13;;;0.60;;
17235;SDS011;8734;59.272;17.780;2023-05-17T11:49:29;0.40;;;0.40;;
17235;SDS011;8734;59.272;17.780;2023-05-17T11:52:02;1.60;;;0.40;;
17235;SDS011;8734;59.272;17.780;2023-05-17T11:54:31;0.50;;;0.50;;
17235;SDS011;8734;59.272;17.780;2023-05-17T11:57:00;4.80;;;0.67;;
17235;SDS011;8734;59.272;17.780;2023-05-17T11:59:36;1.30;;;0.57;;
17235;SDS011;8734;59.272;17.780;2023-05-17T12:02:05;0.73;;;0.40;;
17235;SDS011;8734;59.272;17.780;2023-05-17T12:04:34;0.33;;;0.33;;
17235;SDS011;8734;59.272;17.780;2023-05-17T12:07:04;0.40;;;0.40;;
17235;SDS011;8734;59.272;17.780;2023-05-17T12:09:37;0.20;;;0.20;;
17235;SDS011;8734;59.272;17.780;2023-05-17T12:12:06;0.30;;;0.30;;
17235;SDS011;8734;59.272;17.780;2023-05-17T12:14:35;0.40;;;0.40;;
17235;SDS011;8734;59.272;17.780;2023-05-17T12:17:06;0.47;;;0.47;;
17235;SDS011;8734;59.272;17.780;2023-05-17T12:19:35;0.50;;;0.40;;
17235;SDS011;8734;59.272;17.780;2023-05-17T12:22:04;0.40;;;0.40;;
17235;SDS011;8734;59.272;17.780;2023-05-17T12:24:37;0.83;;;0.30;;
17235;SDS011;8734;59.272;17.780;2023-05-17T12:27:06;0.30;;;0.30;;
17235;SDS011;8734;59.272;17.780;2023-05-17T12:29:37;1.20;;;0.43;;
17235;SDS011;8734;59.272;17.780;2023-05-17T12:32:06;0.97;;;0.40;;
17235;SDS011;8734;59.272;17.780;2023-05-17T12:34:35;0.50;;;0.40;;
17235;SDS011;8734;59.272;17.780;2023-05-17T12:37:05;1.40;;;0.40;;
17235;SDS011;8734;59.272;17.780;2023-05-17T12:39:36;0.57;;;0.40;;
17235;SDS011;8734;59.272;17.780;2023-05-17T12:42:05;0.50;;;0.47;;
17235;SDS011;8734;59.272;17.780;2023-05-17T12:44:36;0.40;;;0.30;;
17235;SDS011;8734;59.272;17.780;2023-05-17T12:47:05;0.53;;;0.30;;
17235;SDS011;8734;59.272;17.780;2023-05-17T12:49:36;0.20;;;0.20;;
17235;SDS011;8734;59.272;17.780;2023-05-17T12:52:05;2.70;;;0.37;;
17235;SDS011;8734;59.272;17.780;2023-05-17T12:54:34;0.97;;;0.30;;
17235;SDS011;8734;59.272;17.780;2023-05-17T12:57:08;0.20;;;0.20;;
17235;SDS011;8734;59.272;17.780;2023-05-17T12:59:47;0.30;;;0.30;;
17235;SDS011;8734;59.272;17.780;2023-05-17T13:02:17;1.07;;;0.30;;
17235;SDS011;8734;59.272;17.780;2023-05-17T13:04:46;0.63;;;0.40;;
17235;SDS011;8734;59.272;17.780;2023-05-17T13:07:19;0.40;;;0.40;;
17235;SDS011;8734;59.272;17.780;2023-05-17T13:09:49;0.47;;;0.47;;
17235;SDS011;8734;59.272;17.780;2023-05-17T13:12:19;0.30;;;0.30;;
17235;SDS011;8734;59.272;17.780;2023-05-17T13:14:49;0.30;;;0.30;;
17235;SDS011;8734;59.272;17.780;2023-05-17T13:17:23;0.30;;;0.30;;
17235;SDS011;8734;59.272;17.780;2023-05-17T13:19:52;0.40;;;0.30;;
17235;SDS011;8734;59.272;17.780;2023-05-17T13:22:23;0.30;;;0.30;;
17235;SDS011;8734;59.272;17.780;2023-05-17T13:24:51;0.37;;;0.27;;
17235;SDS011;8734;59.272;17.780;2023-05-17T13:27:20;0.30;;;0.30;;
17235;SDS011;8734;59.272;17.780;2023-05-17T13:29:49;0.33;;;0.30;;
17235;SDS011;8734;59.272;17.780;2023-05-17T13:32:18;0.53;;;0.30;;
17235;SDS011;8734;59.272;17.780;2023-05-17T13:34:47;0.20;;;0.20;;
17235;SDS011;8734;59.272;17.780;2023-05-17T13:37:16;0.27;;;0.27;;
17235;SDS011;8734;59.272;17.780;2023-05-17T13:39:44;0.30;;;0.30;;
17235;SDS011;8734;59.272;17.780;2023-05-17T13:42:12;0.83;;;0.40;;
17235;SDS011;8734;59.272;17.780;2023-05-17T13:44:40;0.27;;;0.27;;
17235;SDS011;8734;59.272;17.780;2023-05-17T13:47:10;0.50;;;0.40;;
17235;SDS011;8734;59.272;17.780;2023-05-17T13:49:38;0.80;;;0.50;;
17235;SDS011;8734;59.272;17.780;2023-05-17T13:52:07;0.97;;;0.30;;
17235;SDS011;8734;59.272;17.780;2023-05-17T13:54:37;1.07;;;0.40;;
17235;SDS011;8734;59.272;17.780;2023-05-17T13:57:06;0.60;;;0.50;;
17235;SDS011;8734;59.272;17.780;2023-05-17T13:59:34;0.87;;;0.43;;
17235;SDS011;8734;59.272;17.780;2023-05-17T14:02:03;0.37;;;0.30;;
17235;SDS011;8734;59.272;17.780;2023-05-17T14:04:32;1.00;;;0.30;;
17235;SDS011;8734;59.272;17.780;2023-05-17T14:07:01;1.03;;;0.37;;
17235;SDS011;8734;59.272;17.780;2023-05-17T14:09:30;0.40;;;0.40;;
17235;SDS011;8734;59.272;17.780;2023-05-17T14:11:59;0.73;;;0.50;;
17235;SDS011;8734;59.272;17.780;2023-05-17T14:14:28;0.30;;;0.30;;
17235;SDS011;8734;59.272;17.780;2023-05-17T14:16:57;0.67;;;0.40;;
17235;SDS011;8734;59.272;17.780;2023-05-17T14:19:26;0.70;;;0.30;;
17235;SDS011;8734;59.272;17.780;2023-05-17T14:21:56;0.20;;;0.20;;
17235;SDS011;8734;59.272;17.780;2023-05-17T14:24:25;2.47;;;0.27;;
17235;SDS011;8734;59.272;17.780;2023-05-17T14:26:53;0.40;;;0.40;;
17235;SDS011;8734;59.272;17.780;2023-05-17T14:29:23;0.30;;;0.30;;
17235;SDS011;8734;59.272;17.780;2023-05-17T14:31:51;1.83;;;0.40;;
17235;SDS011;8734;59.272;17.780;2023-05-17T14:34:19;1.20;;;0.47;;
17235;SDS011;8734;59.272;17.780;2023-05-17T14:36:48;0.23;;;0.23;;
17235;SDS011;8734;59.272;17.780;2023-05-17T14:39:18;0.97;;;0.40;;
17235;SDS011;8734;59.272;17.780;2023-05-17T14:41:46;2.27;;;0.70;;
17235;SDS011;8734;59.272;17.780;2023-05-17T14:44:15;0.90;;;0.43;;
17235;SDS011;8734;59.272;17.780;2023-05-17T14:46:43;2.33;;;0.43;;
17235;SDS011;8734;59.272;17.780;2023-05-17T14:49:11;0.77;;;0.60;;
17235;SDS011;8734;59.272;17.780;2023-05-17T14:51:40;0.83;;;0.63;;
17235;SDS011;8734;59.272;17.780;2023-05-17T14:54:08;2.80;;;0.63;;
17235;SDS011;8734;59.272;17.780;2023-05-17T14:56:40;0.40;;;0.40;;
17235;SDS011;8734;59.272;17.780;2023-05-17T14:59:08;6.03;;;0.90;;